sensor_id;sensor_type;location;lat;lon;timestamp;temperature;humidity
17495;DHT22;8864;51.970;4.614;2023-04-23T00:01:25;17.90;61.10
17495;DHT22;8864;51.970;4.614;2023-04-23T00:03:55;17.90;61.10
17495;DHT22;8864;51.970;4.614;2023-04-23T00:06:23;17.90;61.10
17495;DHT22;8864;51.970;4.614;2023-04-23T00:08:52;17.90;61.10
17495;DHT22;8864;51.970;4.614;2023-04-23T00:11:19;17.90;61.10
17495;DHT22;8864;51.970;4.614;2023-04-23T00:13:48;17.90;61.10
17495;DHT22;8864;51.970;4.614;2023-04-23T00:16:17;17.90;61.10
17495;DHT22;8864;51.970;4.614;2023-04-23T00:18:44;17.90;61.10
17495;DHT22;8864;51.970;4.614;2023-04-23T00:21:11;17.90;61.20
17495;DHT22;8864;51.970;4.614;2023-04-23T00:23:38;17.90;61.20
17495;DHT22;8864;51.970;4.614;2023-04-23T00:26:05;17.90;61.10
17495;DHT22;8864;51.970;4.614;2023-04-23T00:28:32;17.90;61.10
17495;DHT22;8864;51.970;4.614;2023-04-23T00:31:00;17.90;61.10
17495;DHT22;8864;51.970;4.614;2023-04-23T00:33:27;17.90;61.20
17495;DHT22;8864;51.970;4.614;2023-04-23T00:35:54;17.90;61.30
17495;DHT22;8864;51.970;4.614;2023-04-23T00:38:21;17.80;61.10
17495;DHT22;8864;51.970;4.614;2023-04-23T00:40:48;17.90;61.10
17495;DHT22;8864;51.970;4.614;2023-04-23T00:43:15;17.90;61.20
17495;DHT22;8864;51.970;4.614;2023-04-23T00:45:42;17.90;61.20
17495;DHT22;8864;51.970;4.614;2023-04-23T00:48:11;17.90;61.10
17495;DHT22;8864;51.970;4.614;2023-04-23T00:50:37;17.90;61.20
17495;DHT22;8864;51.970;4.614;2023-04-23T00:53:04;17.90;61.10
17495;DHT22;8864;51.970;4.614;2023-04-23T00:55:32;17.90;61.20
17495;DHT22;8864;51.970;4.614;2023-04-23T00:57:59;17.90;61.10
17495;DHT22;8864;51.970;4.614;2023-04-23T01:00:26;17.80;61.10
17495;DHT22;8864;51.970;4.614;2023-04-23T01:02:53;17.90;61.20
17495;DHT22;8864;51.970;4.614;2023-04-23T01:05:24;17.90;61.20
17495;DHT22;8864;51.970;4.614;2023-04-23T01:07:52;17.90;61.10
17495;DHT22;8864;51.970;4.614;2023-04-23T01:10:19;17.90;61.10
17495;DHT22;8864;51.970;4.614;2023-04-23T01:12:47;17.80;61.10
17495;DHT22;8864;51.970;4.614;2023-04-23T01:15:14;17.90;61.20
17495;DHT22;8864;51.970;4.614;2023-04-23T01:17:42;17.90;61.10
17495;DHT22;8864;51.970;4.614;2023-04-23T01:20:09;17.90;61.10
17495;DHT22;8864;51.970;4.614;2023-04-23T01:22:38;17.90;61.20
17495;DHT22;8864;51.970;4.614;2023-04-23T01:25:06;17.90;61.30
17495;DHT22;8864;51.970;4.614;2023-04-23T01:27:34;17.80;61.10
17495;DHT22;8864;51.970;4.614;2023-04-23T01:30:03;17.90;61.20
17495;DHT22;8864;51.970;4.614;2023-04-23T01:32:31;17.80;61.10
17495;DHT22;8864;51.970;4.614;2023-04-23T01:34:58;17.90;61.20
17495;DHT22;8864;51.970;4.614;2023-04-23T01:37:25;17.90;61.20
17495;DHT22;8864;51.970;4.614;2023-04-23T01:39:54;17.80;61.10
17495;DHT22;8864;51.970;4.614;2023-04-23T01:42:21;17.80;61.10
17495;DHT22;8864;51.970;4.614;2023-04-23T01:44:48;17.90;61.30
17495;DHT22;8864;51.970;4.614;2023-04-23T01:47:17;17.80;61.10
17495;DHT22;8864;51.970;4.614;2023-04-23T01:49:44;17.90;61.10
17495;DHT22;8864;51.970;4.614;2023-04-23T01:52:11;17.80;61.10
17495;DHT22;8864;51.970;4.614;2023-04-23T01:54:38;17.80;61.10
17495;DHT22;8864;51.970;4.614;2023-04-23T01:57:06;17.80;61.20
17495;DHT22;8864;51.970;4.614;2023-04-23T01:59:33;17.80;61.10
17495;DHT22;8864;51.970;4.614;2023-04-23T02:02:01;17.90;61.20
17495;DHT22;8864;51.970;4.614;2023-04-23T02:04:28;17.90;61.20
17495;DHT22;8864;51.970;4.614;2023-04-23T02:06:56;17.90;61.20
17495;DHT22;8864;51.970;4.614;2023-04-23T02:09:23;17.80;61.10
17495;DHT22;8864;51.970;4.614;2023-04-23T02:11:49;17.80;61.10
17495;DHT22;8864;51.970;4.614;2023-04-23T02:14:18;17.80;61.10
17495;DHT22;8864;51.970;4.614;2023-04-23T02:16:44;17.80;61.10
17495;DHT22;8864;51.970;4.614;2023-04-23T02:19:12;17.80;61.10
17495;DHT22;8864;51.970;4.614;2023-04-23T02:21:40;17.80;61.10
17495;DHT22;8864;51.970;4.614;2023-04-23T02:24:07;17.90;61.20
17495;DHT22;8864;51.970;4.614;2023-04-23T02:26:34;17.80;61.20
17495;DHT22;8864;51.970;4.614;2023-04-23T02:29:01;17.80;61.10
17495;DHT22;8864;51.970;4.614;2023-04-23T02:31:29;17.80;61.10
17495;DHT22;8864;51.970;4.614;2023-04-23T02:33:56;17.80;61.10
17495;DHT22;8864;51.970;4.614;2023-04-23T02:36:23;17.80;61.10
17495;DHT22;8864;51.970;4.614;2023-04-23T02:38:50;17.80;61.10
17495;DHT22;8864;51.970;4.614;2023-04-23T02:41:17;17.80;61.10
17495;DHT22;8864;51.970;4.614;2023-04-23T02:43:44;17.80;61.10
17495;DHT22;8864;51.970;4.614;2023-04-23T02:46:11;17.80;61.10
17495;DHT22;8864;51.970;4.614;2023-04-23T02:48:40;17.80;61.10
17495;DHT22;8864;51.970;4.614;2023-04-23T02:51:09;17.80;61.10
17495;DHT22;8864;51.970;4.614;2023-04-23T02:53:36;17.80;61.10
17495;DHT22;8864;51.970;4.614;2023-04-23T02:56:03;17.80;61.10
17495;DHT22;8864;51.970;4.614;2023-04-23T02:58:30;17.80;61.10
17495;DHT22;8864;51.970;4.614;2023-04-23T03:00:57;17.80;61.10
17495;DHT22;8864;51.970;4.614;2023-04-23T03:03:25;17.80;61.10
17495;DHT22;8864;51.970;4.614;2023-04-23T03:05:58;17.80;61.10
17495;DHT22;8864;51.970;4.614;2023-04-23T03:08:25;17.80;61.10
17495;DHT22;8864;51.970;4.614;2023-04-23T03:10:52;17.80;61.10
17495;DHT22;8864;51.970;4.614;2023-04-23T03:13:19;17.80;61.10
17495;DHT22;8864;51.970;4.614;2023-04-23T03:15:46;17.80;61.10
17495;DHT22;8864;51.970;4.614;2023-04-23T03:18:13;17.80;61.10
17495;DHT22;8864;51.970;4.614;2023-04-23T03:20:40;17.80;61.10
17495;DHT22;8864;51.970;4.614;2023-04-23T03:23:08;17.80;61.10
17495;DHT22;8864;51.970;4.614;2023-04-23T03:25:35;17.80;61.10
17495;DHT22;8864;51.970;4.614;2023-04-23T03:28:02;17.80;61.10
17495;DHT22;8864;51.970;4.614;2023-04-23T03:30:30;17.80;61.10
17495;DHT22;8864;51.970;4.614;2023-04-23T03:32:58;17.80;61.10
17495;DHT22;8864;51.970;4.614;2023-04-23T03:35:26;17.80;61.10
17495;DHT22;8864;51.970;4.614;2023-04-23T03:37:54;17.80;61.20
17495;DHT22;8864;51.970;4.614;2023-04-23T03:40:22;17.80;61.20
17495;DHT22;8864;51.970;4.614;2023-04-23T03:42:49;17.80;61.20
17495;DHT22;8864;51.970;4.614;2023-04-23T03:45:16;17.80;61.10
17495;DHT22;8864;51.970;4.614;2023-04-23T03:47:43;17.80;61.10
17495;DHT22;8864;51.970;4.614;2023-04-23T03:50:10;17.80;61.10
17495;DHT22;8864;51.970;4.614;2023-04-23T03:52:38;17.80;61.10
17495;DHT22;8864;51.970;4.614;2023-04-23T03:55:06;17.80;61.30
17495;DHT22;8864;51.970;4.614;2023-04-23T03:57:35;17.80;61.20
17495;DHT22;8864;51.970;4.614;2023-04-23T04:00:03;17.80;61.10
17495;DHT22;8864;51.970;4.614;2023-04-23T04:02:32;17.80;61.10
17495;DHT22;8864;51.970;4.614;2023-04-23T04:05:00;17.80;61.10
17495;DHT22;8864;51.970;4.614;2023-04-23T04:07:27;17.80;61.10
17495;DHT22;8864;51.970;4.614;2023-04-23T04:09:54;17.80;61.20
17495;DHT22;8864;51.970;4.614;2023-04-23T04:12:21;17.80;61.10
17495;DHT22;8864;51.970;4.614;2023-04-23T04:14:49;17.80;61.10
17495;DHT22;8864;51.970;4.614;2023-04-23T04:17:16;17.80;61.20
17495;DHT22;8864;51.970;4.614;2023-04-23T04:19:43;17.70;61.10
17495;DHT22;8864;51.970;4.614;2023-04-23T04:22:10;17.70;61.10
17495;DHT22;8864;51.970;4.614;2023-04-23T04:24:37;17.80;61.20
17495;DHT22;8864;51.970;4.614;2023-04-23T04:27:06;17.70;61.10
17495;DHT22;8864;51.970;4.614;2023-04-23T04:29:33;17.80;61.20
17495;DHT22;8864;51.970;4.614;2023-04-23T04:32:01;17.70;61.10
17495;DHT22;8864;51.970;4.614;2023-04-23T04:34:29;17.80;61.30
17495;DHT22;8864;51.970;4.614;2023-04-23T04:36:56;17.70;61.10
17495;DHT22;8864;51.970;4.614;2023-04-23T04:39:23;17.70;61.10
17495;DHT22;8864;51.970;4.614;2023-04-23T04:41:50;17.80;61.20
17495;DHT22;8864;51.970;4.614;2023-04-23T04:44:17;17.70;61.10
17495;DHT22;8864;51.970;4.614;2023-04-23T04:46:44;17.70;61.10
17495;DHT22;8864;51.970;4.614;2023-04-23T04:49:13;17.70;61.10
17495;DHT22;8864;51.970;4.614;2023-04-23T04:51:44;17.70;61.20
17495;DHT22;8864;51.970;4.614;2023-04-23T04:54:11;17.70;61.10
17495;DHT22;8864;51.970;4.614;2023-04-23T04:56:38;17.70;61.20
17495;DHT22;8864;51.970;4.614;2023-04-23T04:59:04;17.70;61.10
17495;DHT22;8864;51.970;4.614;2023-04-23T05:01:32;17.70;61.10
17495;DHT22;8864;51.970;4.614;2023-04-23T05:03:59;17.70;61.10
17495;DHT22;8864;51.970;4.614;2023-04-23T05:06:27;17.70;61.10
17495;DHT22;8864;51.970;4.614;2023-04-23T05:08:55;17.70;61.10
17495;DHT22;8864;51.970;4.614;2023-04-23T05:11:22;17.70;61.10
17495;DHT22;8864;51.970;4.614;2023-04-23T05:13:50;17.70;61.10
17495;DHT22;8864;51.970;4.614;2023-04-23T05:16:17;17.70;61.10
17495;DHT22;8864;51.970;4.614;2023-04-23T05:18:44;17.70;61.20
17495;DHT22;8864;51.970;4.614;2023-04-23T05:21:11;17.70;61.10
17495;DHT22;8864;51.970;4.614;2023-04-23T05:23:40;17.70;61.10
17495;DHT22;8864;51.970;4.614;2023-04-23T05:26:07;17.70;61.10
17495;DHT22;8864;51.970;4.614;2023-04-23T05:28:34;17.70;61.10
17495;DHT22;8864;51.970;4.614;2023-04-23T05:31:01;17.80;61.20
17495;DHT22;8864;51.970;4.614;2023-04-23T05:33:28;17.70;61.10
17495;DHT22;8864;51.970;4.614;2023-04-23T05:35:56;17.80;61.20
17495;DHT22;8864;51.970;4.614;2023-04-23T05:38:23;17.80;61.20
17495;DHT22;8864;51.970;4.614;2023-04-23T05:40:52;17.70;61.10
17495;DHT22;8864;51.970;4.614;2023-04-23T05:43:19;17.70;61.10
17495;DHT22;8864;51.970;4.614;2023-04-23T05:45:45;17.80;61.20
17495;DHT22;8864;51.970;4.614;2023-04-23T05:48:12;17.80;61.20
17495;DHT22;8864;51.970;4.614;2023-04-23T05:50:39;17.80;61.20
17495;DHT22;8864;51.970;4.614;2023-04-23T05:53:06;17.80;61.20
17495;DHT22;8864;51.970;4.614;2023-04-23T05:55:33;17.80;61.20
17495;DHT22;8864;51.970;4.614;2023-04-23T05:58:01;17.80;61.20
17495;DHT22;8864;51.970;4.614;2023-04-23T06:00:29;17.80;61.20
17495;DHT22;8864;51.970;4.614;2023-04-23T06:02:57;17.80;61.20
17495;DHT22;8864;51.970;4.614;2023-04-23T06:05:24;17.70;61.10
17495;DHT22;8864;51.970;4.614;2023-04-23T06:07:51;17.80;61.20
17495;DHT22;8864;51.970;4.614;2023-04-23T06:10:18;17.80;61.20
17495;DHT22;8864;51.970;4.614;2023-04-23T06:12:44;17.80;61.30
17495;DHT22;8864;51.970;4.614;2023-04-23T06:15:13;17.80;61.30
17495;DHT22;8864;51.970;4.614;2023-04-23T06:17:40;17.80;61.20
17495;DHT22;8864;51.970;4.614;2023-04-23T06:20:07;17.80;61.30
17495;DHT22;8864;51.970;4.614;2023-04-23T06:22:36;17.80;61.30
17495;DHT22;8864;51.970;4.614;2023-04-23T06:25:04;17.80;61.30
17495;DHT22;8864;51.970;4.614;2023-04-23T06:27:31;17.80;61.20
17495;DHT22;8864;51.970;4.614;2023-04-23T06:29:58;17.80;61.30
17495;DHT22;8864;51.970;4.614;2023-04-23T06:32:26;17.80;61.20
17495;DHT22;8864;51.970;4.614;2023-04-23T06:34:53;17.80;61.20
17495;DHT22;8864;51.970;4.614;2023-04-23T06:37:20;17.80;61.20
17495;DHT22;8864;51.970;4.614;2023-04-23T06:39:47;17.70;61.10
17495;DHT22;8864;51.970;4.614;2023-04-23T06:42:14;17.80;61.20
17495;DHT22;8864;51.970;4.614;2023-04-23T06:44:42;17.80;61.20
17495;DHT22;8864;51.970;4.614;2023-04-23T06:47:11;17.80;61.20
17495;DHT22;8864;51.970;4.614;2023-04-23T06:49:40;17.80;61.20
17495;DHT22;8864;51.970;4.614;2023-04-23T06:52:07;17.80;61.30
17495;DHT22;8864;51.970;4.614;2023-04-23T06:54:34;17.80;61.30
17495;DHT22;8864;51.970;4.614;2023-04-23T06:57:01;17.80;61.20
17495;DHT22;8864;51.970;4.614;2023-04-23T06:59:27;17.80;61.20
17495;DHT22;8864;51.970;4.614;2023-04-23T07:01:54;17.80;61.20
17495;DHT22;8864;51.970;4.614;2023-04-23T07:04:21;17.80;61.30
17495;DHT22;8864;51.970;4.614;2023-04-23T07:06:50;17.90;61.30
17495;DHT22;8864;51.970;4.614;2023-04-23T07:09:16;17.90;61.30
17495;DHT22;8864;51.970;4.614;2023-04-23T07:11:44;17.90;61.30
17495;DHT22;8864;51.970;4.614;2023-04-23T07:14:11;17.90;61.30
17495;DHT22;8864;51.970;4.614;2023-04-23T07:16:38;17.90;61.20
17495;DHT22;8864;51.970;4.614;2023-04-23T07:19:05;17.90;61.20
17495;DHT22;8864;51.970;4.614;2023-04-23T07:21:31;17.90;61.20
17495;DHT22;8864;51.970;4.614;2023-04-23T07:24:00;17.90;61.20
17495;DHT22;8864;51.970;4.614;2023-04-23T07:26:31;17.90;61.20
17495;DHT22;8864;51.970;4.614;2023-04-23T07:28:58;17.90;61.20
17495;DHT22;8864;51.970;4.614;2023-04-23T07:31:25;17.90;61.20
17495;DHT22;8864;51.970;4.614;2023-04-23T07:33:52;17.90;61.20
17495;DHT22;8864;51.970;4.614;2023-04-23T07:36:19;17.90;61.20
17495;DHT22;8864;51.970;4.614;2023-04-23T07:38:46;17.90;61.20
17495;DHT22;8864;51.970;4.614;2023-04-23T07:41:15;17.90;61.20
17495;DHT22;8864;51.970;4.614;2023-04-23T07:43:42;17.90;61.20
17495;DHT22;8864;51.970;4.614;2023-04-23T07:46:09;17.90;61.20
17495;DHT22;8864;51.970;4.614;2023-04-23T07:48:36;18.00;61.20
17495;DHT22;8864;51.970;4.614;2023-04-23T07:51:03;17.90;61.20
17495;DHT22;8864;51.970;4.614;2023-04-23T07:53:31;17.90;61.20
17495;DHT22;8864;51.970;4.614;2023-04-23T07:55:57;18.00;61.20
17495;DHT22;8864;51.970;4.614;2023-04-23T07:58:26;18.00;61.20
17495;DHT22;8864;51.970;4.614;2023-04-23T08:00:53;18.00;61.20
17495;DHT22;8864;51.970;4.614;2023-04-23T08:03:20;18.00;61.20
17495;DHT22;8864;51.970;4.614;2023-04-23T08:05:47;18.00;61.20
17495;DHT22;8864;51.970;4.614;2023-04-23T08:08:14;18.00;61.20
17495;DHT22;8864;51.970;4.614;2023-04-23T08:10:41;18.00;61.20
17495;DHT22;8864;51.970;4.614;2023-04-23T08:13:08;18.00;61.20
17495;DHT22;8864;51.970;4.614;2023-04-23T08:15:37;18.00;61.20
17495;DHT22;8864;51.970;4.614;2023-04-23T08:18:04;18.00;61.20
17495;DHT22;8864;51.970;4.614;2023-04-23T08:20:31;18.00;61.20
17495;DHT22;8864;51.970;4.614;2023-04-23T08:22:58;18.00;61.20
17495;DHT22;8864;51.970;4.614;2023-04-23T08:25:25;18.00;61.20
17495;DHT22;8864;51.970;4.614;2023-04-23T08:27:52;18.00;61.20
17495;DHT22;8864;51.970;4.614;2023-04-23T08:30:19;18.00;61.20
17495;DHT22;8864;51.970;4.614;2023-04-23T08:32:49;18.00;62.00
17495;DHT22;8864;51.970;4.614;2023-04-23T08:35:18;18.00;61.30
17495;DHT22;8864;51.970;4.614;2023-04-23T08:37:45;18.00;61.30
17495;DHT22;8864;51.970;4.614;2023-04-23T08:40:12;18.00;61.30
17495;DHT22;8864;51.970;4.614;2023-04-23T08:42:42;18.00;61.30
17495;DHT22;8864;51.970;4.614;2023-04-23T08:45:11;18.00;61.30
17495;DHT22;8864;51.970;4.614;2023-04-23T08:47:39;18.00;61.40
17495;DHT22;8864;51.970;4.614;2023-04-23T08:50:09;18.00;61.30
17495;DHT22;8864;51.970;4.614;2023-04-23T08:52:39;18.00;61.30
17495;DHT22;8864;51.970;4.614;2023-04-23T08:55:08;18.00;61.30
17495;DHT22;8864;51.970;4.614;2023-04-23T08:57:37;18.00;61.30
17495;DHT22;8864;51.970;4.614;2023-04-23T09:00:05;18.00;61.30
17495;DHT22;8864;51.970;4.614;2023-04-23T09:02:35;18.10;61.40
17495;DHT22;8864;51.970;4.614;2023-04-23T09:05:02;18.00;61.40
17495;DHT22;8864;51.970;4.614;2023-04-23T09:07:32;18.10;61.40
17495;DHT22;8864;51.970;4.614;2023-04-23T09:09:59;18.10;61.50
17495;DHT22;8864;51.970;4.614;2023-04-23T09:12:26;18.10;61.40
17495;DHT22;8864;51.970;4.614;2023-04-23T09:14:53;18.10;61.50
17495;DHT22;8864;51.970;4.614;2023-04-23T09:17:21;18.10;61.50
17495;DHT22;8864;51.970;4.614;2023-04-23T09:19:49;18.10;61.50
17495;DHT22;8864;51.970;4.614;2023-04-23T09:22:38;18.20;61.50
17495;DHT22;8864;51.970;4.614;2023-04-23T09:25:06;18.20;61.50
17495;DHT22;8864;51.970;4.614;2023-04-23T09:27:33;18.20;61.50
17495;DHT22;8864;51.970;4.614;2023-04-23T09:30:01;18.20;61.50
17495;DHT22;8864;51.970;4.614;2023-04-23T09:32:30;18.20;61.50
17495;DHT22;8864;51.970;4.614;2023-04-23T09:34:57;18.20;61.50
17495;DHT22;8864;51.970;4.614;2023-04-23T09:37:24;18.20;61.60
17495;DHT22;8864;51.970;4.614;2023-04-23T09:39:53;18.20;61.50
17495;DHT22;8864;51.970;4.614;2023-04-23T09:42:23;18.20;61.50
17495;DHT22;8864;51.970;4.614;2023-04-23T09:44:55;18.20;61.50
17495;DHT22;8864;51.970;4.614;2023-04-23T09:47:22;18.20;61.50
17495;DHT22;8864;51.970;4.614;2023-04-23T09:49:49;18.20;61.50
17495;DHT22;8864;51.970;4.614;2023-04-23T09:52:17;18.30;61.50
17495;DHT22;8864;51.970;4.614;2023-04-23T09:54:44;18.20;61.40
17495;DHT22;8864;51.970;4.614;2023-04-23T09:57:13;18.30;61.40
17495;DHT22;8864;51.970;4.614;2023-04-23T09:59:40;18.30;61.40
17495;DHT22;8864;51.970;4.614;2023-04-23T10:02:07;18.30;61.40
17495;DHT22;8864;51.970;4.614;2023-04-23T10:04:35;18.30;61.30
17495;DHT22;8864;51.970;4.614;2023-04-23T10:07:03;18.30;61.40
17495;DHT22;8864;51.970;4.614;2023-04-23T10:09:33;18.30;61.30
17495;DHT22;8864;51.970;4.614;2023-04-23T10:12:01;18.30;61.30
17495;DHT22;8864;51.970;4.614;2023-04-23T10:14:30;18.30;61.30
17495;DHT22;8864;51.970;4.614;2023-04-23T10:16:58;18.30;61.30
17495;DHT22;8864;51.970;4.614;2023-04-23T10:19:25;18.40;61.30
17495;DHT22;8864;51.970;4.614;2023-04-23T10:21:54;18.40;61.30
17495;DHT22;8864;51.970;4.614;2023-04-23T10:24:26;18.40;61.30
17495;DHT22;8864;51.970;4.614;2023-04-23T10:26:56;18.40;61.30
17495;DHT22;8864;51.970;4.614;2023-04-23T10:29:26;18.40;61.30
17495;DHT22;8864;51.970;4.614;2023-04-23T10:31:58;18.40;61.30
17495;DHT22;8864;51.970;4.614;2023-04-23T10:34:27;18.40;61.30
17495;DHT22;8864;51.970;4.614;2023-04-23T10:36:55;18.40;61.30
17495;DHT22;8864;51.970;4.614;2023-04-23T10:39:23;18.40;61.30
17495;DHT22;8864;51.970;4.614;2023-04-23T10:41:53;18.40;61.30
17495;DHT22;8864;51.970;4.614;2023-04-23T10:44:20;18.50;61.30
17495;DHT22;8864;51.970;4.614;2023-04-23T10:46:52;18.50;61.30
17495;DHT22;8864;51.970;4.614;2023-04-23T10:49:23;18.50;61.30
17495;DHT22;8864;51.970;4.614;2023-04-23T10:51:58;18.50;61.30
17495;DHT22;8864;51.970;4.614;2023-04-23T10:54:28;18.50;61.20
17495;DHT22;8864;51.970;4.614;2023-04-23T10:56:58;18.60;61.30
17495;DHT22;8864;51.970;4.614;2023-04-23T10:59:26;18.60;61.30
17495;DHT22;8864;51.970;4.614;2023-04-23T11:01:56;18.60;61.30
17495;DHT22;8864;51.970;4.614;2023-04-23T11:04:26;18.60;62.10
17495;DHT22;8864;51.970;4.614;2023-04-23T11:06:55;18.60;61.30
17495;DHT22;8864;51.970;4.614;2023-04-23T11:09:36;18.60;61.30
17495;DHT22;8864;51.970;4.614;2023-04-23T11:12:06;18.60;61.30
17495;DHT22;8864;51.970;4.614;2023-04-23T11:14:35;18.60;61.30
17495;DHT22;8864;51.970;4.614;2023-04-23T11:17:04;18.70;61.30
17495;DHT22;8864;51.970;4.614;2023-04-23T11:19:35;18.60;61.30
17495;DHT22;8864;51.970;4.614;2023-04-23T11:22:04;18.60;61.30
17495;DHT22;8864;51.970;4.614;2023-04-23T11:24:34;18.70;61.30
17495;DHT22;8864;51.970;4.614;2023-04-23T11:27:07;18.60;61.30
17495;DHT22;8864;51.970;4.614;2023-04-23T11:29:35;18.70;61.30
17495;DHT22;8864;51.970;4.614;2023-04-23T11:32:03;18.70;61.30
17495;DHT22;8864;51.970;4.614;2023-04-23T11:34:37;18.70;61.30
17495;DHT22;8864;51.970;4.614;2023-04-23T11:37:04;18.80;61.30
17495;DHT22;8864;51.970;4.614;2023-04-23T11:39:31;18.80;61.30
17495;DHT22;8864;51.970;4.614;2023-04-23T11:41:58;18.80;61.20
17495;DHT22;8864;51.970;4.614;2023-04-23T11:44:28;18.80;61.20
17495;DHT22;8864;51.970;4.614;2023-04-23T11:46:59;18.80;61.20
17495;DHT22;8864;51.970;4.614;2023-04-23T11:49:26;18.80;61.20
17495;DHT22;8864;51.970;4.614;2023-04-23T11:51:57;18.80;61.10
17495;DHT22;8864;51.970;4.614;2023-04-23T11:54:26;18.90;61.20
17495;DHT22;8864;51.970;4.614;2023-04-23T11:56:54;18.90;61.10
17495;DHT22;8864;51.970;4.614;2023-04-23T11:59:23;18.90;61.10
17495;DHT22;8864;51.970;4.614;2023-04-23T12:01:52;18.90;61.10
17495;DHT22;8864;51.970;4.614;2023-04-23T12:04:21;18.90;61.10
17495;DHT22;8864;51.970;4.614;2023-04-23T12:06:50;18.90;61.10
17495;DHT22;8864;51.970;4.614;2023-04-23T12:09:19;19.00;61.10
17495;DHT22;8864;51.970;4.614;2023-04-23T12:11:47;19.00;61.10
17495;DHT22;8864;51.970;4.614;2023-04-23T12:14:16;19.00;61.10
17495;DHT22;8864;51.970;4.614;2023-04-23T12:16:46;19.00;61.10
17495;DHT22;8864;51.970;4.614;2023-04-23T12:19:17;19.00;61.00
17495;DHT22;8864;51.970;4.614;2023-04-23T12:21:49;19.00;61.10
17495;DHT22;8864;51.970;4.614;2023-04-23T12:24:21;19.00;61.00
17495;DHT22;8864;51.970;4.614;2023-04-23T12:26:49;19.00;61.00
17495;DHT22;8864;51.970;4.614;2023-04-23T12:29:19;19.00;61.00
17495;DHT22;8864;51.970;4.614;2023-04-23T12:31:46;19.10;61.10
17495;DHT22;8864;51.970;4.614;2023-04-23T12:34:14;19.10;61.10
17495;DHT22;8864;51.970;4.614;2023-04-23T12:36:44;19.10;61.00
17495;DHT22;8864;51.970;4.614;2023-04-23T12:39:27;19.10;61.00
17495;DHT22;8864;51.970;4.614;2023-04-23T12:41:59;19.10;61.00
17495;DHT22;8864;51.970;4.614;2023-04-23T12:44:28;19.10;61.00
17495;DHT22;8864;51.970;4.614;2023-04-23T12:46:55;19.10;61.00
17495;DHT22;8864;51.970;4.614;2023-04-23T12:49:23;19.10;61.00
17495;DHT22;8864;51.970;4.614;2023-04-23T12:51:51;19.00;61.00
17495;DHT22;8864;51.970;4.614;2023-04-23T12:54:22;19.00;61.00
17495;DHT22;8864;51.970;4.614;2023-04-23T12:56:51;19.10;61.00
17495;DHT22;8864;51.970;4.614;2023-04-23T12:59:18;19.10;61.00
17495;DHT22;8864;51.970;4.614;2023-04-23T13:01:45;19.10;61.00
17495;DHT22;8864;51.970;4.614;2023-04-23T13:04:12;19.10;61.00
17495;DHT22;8864;51.970;4.614;2023-04-23T13:06:39;19.10;61.30
17495;DHT22;8864;51.970;4.614;2023-04-23T13:09:06;19.10;61.00
17495;DHT22;8864;51.970;4.614;2023-04-23T13:11:34;19.10;61.00
17495;DHT22;8864;51.970;4.614;2023-04-23T13:14:03;19.10;61.00
17495;DHT22;8864;51.970;4.614;2023-04-23T13:16:30;19.00;60.90
17495;DHT22;8864;51.970;4.614;2023-04-23T13:18:58;19.00;60.90
17495;DHT22;8864;51.970;4.614;2023-04-23T13:21:25;19.00;60.90
17495;DHT22;8864;51.970;4.614;2023-04-23T13:23:52;19.00;60.90
17495;DHT22;8864;51.970;4.614;2023-04-23T13:26:19;19.10;60.90
17495;DHT22;8864;51.970;4.614;2023-04-23T13:28:47;19.10;60.90
17495;DHT22;8864;51.970;4.614;2023-04-23T13:31:15;19.10;60.90
17495;DHT22;8864;51.970;4.614;2023-04-23T13:33:42;19.10;60.90
17495;DHT22;8864;51.970;4.614;2023-04-23T13:36:09;19.00;60.90
17495;DHT22;8864;51.970;4.614;2023-04-23T13:38:36;19.10;60.90
17495;DHT22;8864;51.970;4.614;2023-04-23T13:41:02;19.10;60.90
17495;DHT22;8864;51.970;4.614;2023-04-23T13:43:30;19.00;60.90
17495;DHT22;8864;51.970;4.614;2023-04-23T13:45:57;19.00;60.90
17495;DHT22;8864;51.970;4.614;2023-04-23T13:48:27;19.00;60.90
17495;DHT22;8864;51.970;4.614;2023-04-23T13:50:56;19.00;60.80
17495;DHT22;8864;51.970;4.614;2023-04-23T13:53:23;19.00;60.80
17495;DHT22;8864;51.970;4.614;2023-04-23T13:55:49;19.00;60.80
17495;DHT22;8864;51.970;4.614;2023-04-23T13:58:17;19.00;60.80
17495;DHT22;8864;51.970;4.614;2023-04-23T14:00:44;19.00;60.80
17495;DHT22;8864;51.970;4.614;2023-04-23T14:03:11;19.00;60.80
17495;DHT22;8864;51.970;4.614;2023-04-23T14:05:39;19.00;60.80
17495;DHT22;8864;51.970;4.614;2023-04-23T14:08:06;19.00;60.80
17495;DHT22;8864;51.970;4.614;2023-04-23T14:10:33;19.00;60.80
17495;DHT22;8864;51.970;4.614;2023-04-23T14:13:02;19.00;60.80
17495;DHT22;8864;51.970;4.614;2023-04-23T14:15:29;19.00;60.90
17495;DHT22;8864;51.970;4.614;2023-04-23T14:17:56;19.00;60.80
17495;DHT22;8864;51.970;4.614;2023-04-23T14:20:24;19.00;60.80
17495;DHT22;8864;51.970;4.614;2023-04-23T14:23:00;19.00;60.80
17495;DHT22;8864;51.970;4.614;2023-04-23T14:25:29;19.00;60.80
17495;DHT22;8864;51.970;4.614;2023-04-23T14:28:02;19.00;60.80
17495;DHT22;8864;51.970;4.614;2023-04-23T14:30:35;19.00;60.90
17495;DHT22;8864;51.970;4.614;2023-04-23T14:33:02;19.00;60.90
17495;DHT22;8864;51.970;4.614;2023-04-23T14:35:29;19.00;60.90
17495;DHT22;8864;51.970;4.614;2023-04-23T14:37:57;19.00;60.90
17495;DHT22;8864;51.970;4.614;2023-04-23T14:40:24;19.00;60.90
17495;DHT22;8864;51.970;4.614;2023-04-23T14:42:51;19.00;60.90
17495;DHT22;8864;51.970;4.614;2023-04-23T14:45:18;19.00;60.90
17495;DHT22;8864;51.970;4.614;2023-04-23T14:47:45;19.00;60.90
17495;DHT22;8864;51.970;4.614;2023-04-23T14:50:15;19.00;60.90
17495;DHT22;8864;51.970;4.614;2023-04-23T14:52:42;18.90;60.90
17495;DHT22;8864;51.970;4.614;2023-04-23T14:55:14;18.90;60.90
17495;DHT22;8864;51.970;4.614;2023-04-23T14:57:41;19.00;61.00
17495;DHT22;8864;51.970;4.614;2023-04-23T15:00:08;19.00;60.90
17495;DHT22;8864;51.970;4.614;2023-04-23T15:02:37;19.00;61.00
17495;DHT22;8864;51.970;4.614;2023-04-23T15:05:06;18.90;60.90
17495;DHT22;8864;51.970;4.614;2023-04-23T15:07:33;19.00;61.00
17495;DHT22;8864;51.970;4.614;2023-04-23T15:10:00;19.00;61.00
17495;DHT22;8864;51.970;4.614;2023-04-23T15:12:42;18.90;60.90
17495;DHT22;8864;51.970;4.614;2023-04-23T15:15:15;18.90;60.90
17495;DHT22;8864;51.970;4.614;2023-04-23T15:17:46;18.90;60.90
17495;DHT22;8864;51.970;4.614;2023-04-23T15:20:13;18.90;60.90
17495;DHT22;8864;51.970;4.614;2023-04-23T15:22:40;18.90;60.90
17495;DHT22;8864;51.970;4.614;2023-04-23T15:25:07;18.90;61.00
17495;DHT22;8864;51.970;4.614;2023-04-23T15:27:34;18.90;61.00
17495;DHT22;8864;51.970;4.614;2023-04-23T15:30:04;18.90;61.00
17495;DHT22;8864;51.970;4.614;2023-04-23T15:32:31;18.90;61.00
17495;DHT22;8864;51.970;4.614;2023-04-23T15:34:57;18.90;61.00
17495;DHT22;8864;51.970;4.614;2023-04-23T15:37:24;18.90;61.00
17495;DHT22;8864;51.970;4.614;2023-04-23T15:39:53;18.90;61.00
17495;DHT22;8864;51.970;4.614;2023-04-23T15:42:20;18.90;61.00
17495;DHT22;8864;51.970;4.614;2023-04-23T15:44:49;18.90;61.00
17495;DHT22;8864;51.970;4.614;2023-04-23T15:47:21;18.90;61.00
17495;DHT22;8864;51.970;4.614;2023-04-23T15:49:48;18.90;61.00